Arlington Heights, Ohio
Current Conditions -  °F | °C
As of 10:53 PM on Sunday 23 Nov 2014 (Local Time) from KHAO Reporting Station
Light Rain Light Rain  
Wind Chill: 58°   Ceiling: 1800
Heat Index: 58°   Visibility: 5mi
Dew Point: 55°   Wind: 12mph
Humidity: 90%   Direction: 170°S
Pressure: 29.29"   Gusts: 26mph
Location:  39.236°N, 84.4599°W
Report Text: KHAO 240353Z AUTO 17010G23KT 130V190 5SM -RA BR BKN018 OVC025 14/13 A2929 RMK AO2 RAE09B31 SLP916 P0001 T01440128
Loading
Personal Weather Stations






























Interactive Weather Map New forecast layout! Learn more

10-Day Weather Forecast

Advertisements
Track Severe Weather on mobile